sensor_id;sensor_type;location;lat;lon;timestamp;pressure;altitude;pressure_sealevel;temperature;humidity
71559;BME280;59382;43.852;25.952;2023-02-26T00:01:18;99965.19;;;13.78;55.90
71559;BME280;59382;43.852;25.952;2023-02-26T00:03:47;99968.75;;;13.79;56.20
71559;BME280;59382;43.852;25.952;2023-02-26T00:06:13;99963.56;;;13.77;55.99
71559;BME280;59382;43.852;25.952;2023-02-26T00:08:39;99935.16;;;13.63;56.16
71559;BME280;59382;43.852;25.952;2023-02-26T00:11:06;99954.22;;;13.68;56.10
71559;BME280;59382;43.852;25.952;2023-02-26T00:13:32;99939.44;;;13.59;56.08
71559;BME280;59382;43.852;25.952;2023-02-26T00:15:59;99951.41;;;13.63;56.08
71559;BME280;59382;43.852;25.952;2023-02-26T00:18:25;99950.78;;;13.56;56.21
71559;BME280;59382;43.852;25.952;2023-02-26T00:20:51;99938.13;;;13.45;56.44
71559;BME280;59382;43.852;25.952;2023-02-26T00:23:17;99957.78;;;13.52;56.35
71559;BME280;59382;43.852;25.952;2023-02-26T00:25:44;99954.00;;;13.53;56.14
71559;BME280;59382;43.852;25.952;2023-02-26T00:28:10;99937.25;;;13.40;56.25
71559;BME280;59382;43.852;25.952;2023-02-26T00:30:36;99950.16;;;13.49;56.45
71559;BME280;59382;43.852;25.952;2023-02-26T00:33:03;99958.81;;;13.51;56.29
71559;BME280;59382;43.852;25.952;2023-02-26T00:35:29;99963.75;;;13.54;56.45
71559;BME280;59382;43.852;25.952;2023-02-26T00:38:04;99939.81;;;13.46;56.39
71559;BME280;59382;43.852;25.952;2023-02-26T00:40:47;99942.56;;;13.51;56.56
71559;BME280;59382;43.852;25.952;2023-02-26T00:43:19;99938.81;;;13.52;56.30
71559;BME280;59382;43.852;25.952;2023-02-26T00:46:11;99926.81;;;13.48;56.37
71559;BME280;59382;43.852;25.952;2023-02-26T00:49:06;99938.97;;;13.46;56.35
71559;BME280;59382;43.852;25.952;2023-02-26T00:51:52;99935.03;;;13.37;56.35
71559;BME280;59382;43.852;25.952;2023-02-26T00:54:25;99925.19;;;13.31;56.52
71559;BME280;59382;43.852;25.952;2023-02-26T00:56:52;99928.16;;;13.29;56.94
71559;BME280;59382;43.852;25.952;2023-02-26T00:59:19;99937.50;;;13.38;56.57
71559;BME280;59382;43.852;25.952;2023-02-26T01:01:45;99929.97;;;13.40;56.37
71559;BME280;59382;43.852;25.952;2023-02-26T01:04:12;99939.72;;;13.41;56.42
71559;BME280;59382;43.852;25.952;2023-02-26T01:06:42;99912.72;;;13.30;56.62
71559;BME280;59382;43.852;25.952;2023-02-26T01:09:17;99918.78;;;13.37;56.47
71559;BME280;59382;43.852;25.952;2023-02-26T01:11:45;99913.53;;;13.30;56.37
71559;BME280;59382;43.852;25.952;2023-02-26T01:14:11;99904.09;;;13.16;56.15
71559;BME280;59382;43.852;25.952;2023-02-26T01:16:43;99930.44;;;13.37;56.53
71559;BME280;59382;43.852;25.952;2023-02-26T01:22:43;99920.16;;;13.39;56.36
71559;BME280;59382;43.852;25.952;2023-02-26T01:25:33;99923.44;;;13.41;56.35
71559;BME280;59382;43.852;25.952;2023-02-26T01:28:01;99921.56;;;13.42;56.26
71559;BME280;59382;43.852;25.952;2023-02-26T01:30:27;99912.53;;;13.36;56.19
71559;BME280;59382;43.852;25.952;2023-02-26T01:33:01;99913.59;;;13.35;56.34
71559;BME280;59382;43.852;25.952;2023-02-26T01:35:49;99917.41;;;13.34;56.35
71559;BME280;59382;43.852;25.952;2023-02-26T01:38:28;99906.97;;;13.26;56.50
71559;BME280;59382;43.852;25.952;2023-02-26T01:41:22;99914.09;;;13.32;56.62
71559;BME280;59382;43.852;25.952;2023-02-26T01:49:25;99899.91;;;13.25;56.64
71559;BME280;59382;43.852;25.952;2023-02-26T01:51:55;99871.84;;;13.15;56.60
71559;BME280;59382;43.852;25.952;2023-02-26T01:54:24;99902.84;;;13.40;56.70
71559;BME280;59382;43.852;25.952;2023-02-26T01:56:58;99907.28;;;13.46;56.61
71559;BME280;59382;43.852;25.952;2023-02-26T01:59:24;99900.88;;;13.52;56.26
71559;BME280;59382;43.852;25.952;2023-02-26T02:01:55;99904.19;;;13.59;55.93
71559;BME280;59382;43.852;25.952;2023-02-26T02:04:22;99900.00;;;13.68;55.88
71559;BME280;59382;43.852;25.952;2023-02-26T02:06:49;99888.69;;;13.76;55.61
71559;BME280;59382;43.852;25.952;2023-02-26T02:09:14;99883.09;;;13.83;55.34
71559;BME280;59382;43.852;25.952;2023-02-26T02:12:12;99882.97;;;13.95;54.88
71559;BME280;59382;43.852;25.952;2023-02-26T02:30:51;99854.81;;;14.49;53.20
71559;BME280;59382;43.852;25.952;2023-02-26T02:33:22;99849.13;;;14.50;53.23
71559;BME280;59382;43.852;25.952;2023-02-26T02:36:04;99839.06;;;14.51;52.89
71559;BME280;59382;43.852;25.952;2023-02-26T02:38:37;99845.66;;;14.55;52.68
71559;BME280;59382;43.852;25.952;2023-02-26T02:41:08;99865.84;;;14.69;52.97
71559;BME280;59382;43.852;25.952;2023-02-26T02:43:36;99843.53;;;14.62;52.31
71559;BME280;59382;43.852;25.952;2023-02-26T02:46:08;99837.31;;;14.66;52.47
71559;BME280;59382;43.852;25.952;2023-02-26T02:48:43;99845.00;;;14.74;51.88
71559;BME280;59382;43.852;25.952;2023-02-26T02:51:23;99845.00;;;14.74;51.73
71559;BME280;59382;43.852;25.952;2023-02-26T02:53:55;99835.25;;;14.78;51.88
71559;BME280;59382;43.852;25.952;2023-02-26T03:01:35;99846.50;;;14.92;51.59
71559;BME280;59382;43.852;25.952;2023-02-26T03:04:07;99843.00;;;14.96;51.33
71559;BME280;59382;43.852;25.952;2023-02-26T03:06:33;99849.84;;;15.04;51.27
71559;BME280;59382;43.852;25.952;2023-02-26T03:09:00;99850.44;;;15.11;50.89
71559;BME280;59382;43.852;25.952;2023-02-26T03:11:26;99840.34;;;15.06;50.82
71559;BME280;59382;43.852;25.952;2023-02-26T03:13:52;99841.72;;;15.09;50.71
71559;BME280;59382;43.852;25.952;2023-02-26T03:24:47;99858.75;;;15.36;49.98
71559;BME280;59382;43.852;25.952;2023-02-26T03:36:17;99859.00;;;15.76;47.67
71559;BME280;59382;43.852;25.952;2023-02-26T03:38:51;99854.38;;;15.77;47.19
71559;BME280;59382;43.852;25.952;2023-02-26T03:42:01;99859.06;;;15.86;47.24
71559;BME280;59382;43.852;25.952;2023-02-26T03:44:41;99865.09;;;16.03;46.23
71559;BME280;59382;43.852;25.952;2023-02-26T03:47:11;99867.53;;;16.05;46.56
71559;BME280;59382;43.852;25.952;2023-02-26T03:49:43;99847.13;;;16.07;45.94
71559;BME280;59382;43.852;25.952;2023-02-26T03:52:10;99853.16;;;16.19;45.76
71559;BME280;59382;43.852;25.952;2023-02-26T03:54:41;99852.91;;;16.26;45.61
71559;BME280;59382;43.852;25.952;2023-02-26T03:57:10;99854.28;;;16.33;45.40
71559;BME280;59382;43.852;25.952;2023-02-26T03:59:36;99868.19;;;16.42;44.93
71559;BME280;59382;43.852;25.952;2023-02-26T04:02:04;99841.47;;;16.29;44.52
71559;BME280;59382;43.852;25.952;2023-02-26T04:04:45;99878.84;;;16.48;44.46
71559;BME280;59382;43.852;25.952;2023-02-26T04:07:13;99885.38;;;16.52;44.73
71559;BME280;59382;43.852;25.952;2023-02-26T04:09:45;99877.19;;;16.47;44.75
71559;BME280;59382;43.852;25.952;2023-02-26T04:12:11;99837.13;;;16.33;44.54
71559;BME280;59382;43.852;25.952;2023-02-26T04:14:37;99869.88;;;16.53;44.19
71559;BME280;59382;43.852;25.952;2023-02-26T04:17:02;99876.13;;;16.53;43.96
71559;BME280;59382;43.852;25.952;2023-02-26T04:19:28;99861.16;;;16.56;43.48
71559;BME280;59382;43.852;25.952;2023-02-26T04:21:54;99865.25;;;16.63;43.17
71559;BME280;59382;43.852;25.952;2023-02-26T04:24:20;99845.09;;;16.64;43.06
71559;BME280;59382;43.852;25.952;2023-02-26T04:26:46;99850.00;;;16.77;42.90
71559;BME280;59382;43.852;25.952;2023-02-26T04:29:13;99867.44;;;16.76;43.02
71559;BME280;59382;43.852;25.952;2023-02-26T04:31:38;99866.88;;;16.74;43.23
71559;BME280;59382;43.852;25.952;2023-02-26T04:34:04;99899.56;;;16.84;43.00
71559;BME280;59382;43.852;25.952;2023-02-26T04:36:29;99894.13;;;16.84;43.31
71559;BME280;59382;43.852;25.952;2023-02-26T04:38:55;99893.06;;;16.75;43.38
71559;BME280;59382;43.852;25.952;2023-02-26T04:41:21;99891.94;;;16.71;43.50
71559;BME280;59382;43.852;25.952;2023-02-26T04:43:47;99906.16;;;16.78;43.75
71559;BME280;59382;43.852;25.952;2023-02-26T04:46:12;99890.03;;;16.62;43.46
71559;BME280;59382;43.852;25.952;2023-02-26T04:48:38;99912.66;;;16.77;43.52
71559;BME280;59382;43.852;25.952;2023-02-26T04:51:04;99897.41;;;16.66;43.53
71559;BME280;59382;43.852;25.952;2023-02-26T04:53:31;99912.66;;;16.72;43.68
71559;BME280;59382;43.852;25.952;2023-02-26T04:55:57;99913.22;;;16.69;43.50
71559;BME280;59382;43.852;25.952;2023-02-26T04:58:23;99928.47;;;16.70;43.66
71559;BME280;59382;43.852;25.952;2023-02-26T05:00:50;99918.38;;;16.66;43.76
71559;BME280;59382;43.852;25.952;2023-02-26T05:03:16;99919.19;;;16.66;43.97
71559;BME280;59382;43.852;25.952;2023-02-26T05:05:42;99882.16;;;16.60;43.67
71559;BME280;59382;43.852;25.952;2023-02-26T05:08:08;99906.09;;;16.58;43.77
71559;BME280;59382;43.852;25.952;2023-02-26T05:10:34;99910.47;;;16.64;43.75
71559;BME280;59382;43.852;25.952;2023-02-26T05:12:59;99863.53;;;16.37;44.12
71559;BME280;59382;43.852;25.952;2023-02-26T05:15:25;99895.47;;;16.57;43.90
71559;BME280;59382;43.852;25.952;2023-02-26T05:17:50;99901.47;;;16.59;43.96
71559;BME280;59382;43.852;25.952;2023-02-26T05:20:16;99897.38;;;16.61;43.83
71559;BME280;59382;43.852;25.952;2023-02-26T05:22:42;99898.22;;;16.62;43.53
71559;BME280;59382;43.852;25.952;2023-02-26T05:25:08;99894.09;;;16.59;43.59
71559;BME280;59382;43.852;25.952;2023-02-26T05:27:36;99897.94;;;16.63;43.54
71559;BME280;59382;43.852;25.952;2023-02-26T05:30:03;99915.38;;;16.67;43.51
71559;BME280;59382;43.852;25.952;2023-02-26T05:32:28;99912.94;;;16.66;43.31
71559;BME280;59382;43.852;25.952;2023-02-26T05:34:54;99900.66;;;16.68;43.28
71559;BME280;59382;43.852;25.952;2023-02-26T05:37:19;99871.50;;;16.54;42.86
71559;BME280;59382;43.852;25.952;2023-02-26T05:39:45;99886.50;;;16.71;43.19
71559;BME280;59382;43.852;25.952;2023-02-26T05:42:10;99878.88;;;16.68;43.05
71559;BME280;59382;43.852;25.952;2023-02-26T05:44:36;99884.31;;;16.68;43.23
71559;BME280;59382;43.852;25.952;2023-02-26T05:47:02;99879.13;;;16.67;43.01
71559;BME280;59382;43.852;25.952;2023-02-26T05:49:27;99898.25;;;16.77;43.07
71559;BME280;59382;43.852;25.952;2023-02-26T05:51:53;99900.69;;;16.78;42.99
71559;BME280;59382;43.852;25.952;2023-02-26T05:54:18;99903.97;;;16.75;43.14
71559;BME280;59382;43.852;25.952;2023-02-26T05:56:44;99905.59;;;16.76;42.92
71559;BME280;59382;43.852;25.952;2023-02-26T05:59:09;99907.22;;;16.77;43.23
71559;BME280;59382;43.852;25.952;2023-02-26T06:01:36;99905.56;;;16.81;43.34
71559;BME280;59382;43.852;25.952;2023-02-26T06:04:03;99891.97;;;16.76;43.34
71559;BME280;59382;43.852;25.952;2023-02-26T06:06:28;99905.03;;;16.84;43.44
71559;BME280;59382;43.852;25.952;2023-02-26T06:08:54;99906.13;;;16.83;43.26
71559;BME280;59382;43.852;25.952;2023-02-26T06:11:19;99913.22;;;16.79;43.55
71559;BME280;59382;43.852;25.952;2023-02-26T06:13:45;99906.13;;;16.88;43.30
71559;BME280;59382;43.852;25.952;2023-02-26T06:16:10;99912.69;;;16.82;43.35
71559;BME280;59382;43.852;25.952;2023-02-26T06:18:36;99913.50;;;16.93;43.41
71559;BME280;59382;43.852;25.952;2023-02-26T06:21:01;99889.78;;;16.88;43.37
71559;BME280;59382;43.852;25.952;2023-02-26T06:23:27;99917.59;;;16.95;43.50
71559;BME280;59382;43.852;25.952;2023-02-26T06:25:53;99922.75;;;16.97;43.56
71559;BME280;59382;43.852;25.952;2023-02-26T06:28:19;99921.66;;;16.98;43.84
71559;BME280;59382;43.852;25.952;2023-02-26T06:30:45;99913.22;;;16.89;43.76
71559;BME280;59382;43.852;25.952;2023-02-26T06:33:11;99930.13;;;17.01;43.92
71559;BME280;59382;43.852;25.952;2023-02-26T06:35:37;99925.22;;;17.03;43.93
71559;BME280;59382;43.852;25.952;2023-02-26T06:38:02;99921.41;;;16.94;44.00
71559;BME280;59382;43.852;25.952;2023-02-26T06:40:28;99926.84;;;16.99;44.37
71559;BME280;59382;43.852;25.952;2023-02-26T06:42:55;99931.22;;;17.00;44.38
71559;BME280;59382;43.852;25.952;2023-02-26T06:45:21;99931.22;;;17.10;44.53
71559;BME280;59382;43.852;25.952;2023-02-26T06:47:47;99927.41;;;17.06;44.68
71559;BME280;59382;43.852;25.952;2023-02-26T06:50:13;99940.22;;;17.16;44.62
71559;BME280;59382;43.852;25.952;2023-02-26T06:52:39;99915.41;;;17.12;44.60
71559;BME280;59382;43.852;25.952;2023-02-26T06:55:04;99924.94;;;17.15;44.79
71559;BME280;59382;43.852;25.952;2023-02-26T06:57:30;99930.69;;;17.13;44.61
71559;BME280;59382;43.852;25.952;2023-02-26T06:59:56;99943.19;;;17.14;44.54
71559;BME280;59382;43.852;25.952;2023-02-26T07:02:22;99928.22;;;17.22;44.89
71559;BME280;59382;43.852;25.952;2023-02-26T07:04:47;99941.56;;;17.33;44.97
71559;BME280;59382;43.852;25.952;2023-02-26T07:07:13;99944.84;;;17.35;44.77
71559;BME280;59382;43.852;25.952;2023-02-26T07:09:39;99941.84;;;17.37;44.83
71559;BME280;59382;43.852;25.952;2023-02-26T07:12:05;99948.91;;;17.38;44.84
71559;BME280;59382;43.852;25.952;2023-02-26T07:14:32;99947.56;;;17.40;44.69
71559;BME280;59382;43.852;25.952;2023-02-26T07:16:59;99937.78;;;17.44;44.65
71559;BME280;59382;43.852;25.952;2023-02-26T07:19:25;99934.50;;;17.47;44.55
71559;BME280;59382;43.852;25.952;2023-02-26T07:21:50;99950.88;;;17.52;44.53
71559;BME280;59382;43.852;25.952;2023-02-26T07:24:16;99941.31;;;17.55;44.62
71559;BME280;59382;43.852;25.952;2023-02-26T07:26:42;99929.59;;;17.49;44.46
71559;BME280;59382;43.852;25.952;2023-02-26T07:29:07;99923.31;;;17.49;44.50
71559;BME280;59382;43.852;25.952;2023-02-26T07:31:33;99941.56;;;17.63;44.84
71559;BME280;59382;43.852;25.952;2023-02-26T07:33:58;99934.75;;;17.66;44.38
71559;BME280;59382;43.852;25.952;2023-02-26T07:36:24;99944.28;;;17.69;44.69
71559;BME280;59382;43.852;25.952;2023-02-26T07:38:50;99928.22;;;17.57;44.91
71559;BME280;59382;43.852;25.952;2023-02-26T07:41:15;99941.28;;;17.70;44.93
71559;BME280;59382;43.852;25.952;2023-02-26T07:43:41;99942.66;;;17.68;45.25
71559;BME280;59382;43.852;25.952;2023-02-26T07:46:07;99924.63;;;17.67;45.26
71559;BME280;59382;43.852;25.952;2023-02-26T07:48:32;99942.06;;;17.76;45.34
71559;BME280;59382;43.852;25.952;2023-02-26T07:50:58;99940.44;;;17.75;45.47
71559;BME280;59382;43.852;25.952;2023-02-26T07:53:24;99938.25;;;17.77;45.59
71559;BME280;59382;43.852;25.952;2023-02-26T07:55:50;99936.38;;;17.72;45.69
71559;BME280;59382;43.852;25.952;2023-02-26T07:58:16;99936.06;;;17.79;45.74
71559;BME280;59382;43.852;25.952;2023-02-26T08:00:43;99928.41;;;17.86;45.85
71559;BME280;59382;43.852;25.952;2023-02-26T08:03:08;99933.31;;;17.89;45.90
71559;BME280;59382;43.852;25.952;2023-02-26T08:05:34;99931.69;;;17.88;45.95
71559;BME280;59382;43.852;25.952;2023-02-26T08:08:00;99924.84;;;17.90;45.64
71559;BME280;59382;43.852;25.952;2023-02-26T08:10:26;99945.84;;;18.00;46.12
71559;BME280;59382;43.852;25.952;2023-02-26T08:12:52;99935.47;;;17.97;45.73
71559;BME280;59382;43.852;25.952;2023-02-26T08:15:18;99937.38;;;18.01;46.00
71559;BME280;59382;43.852;25.952;2023-02-26T08:17:43;99946.09;;;18.03;46.07
71559;BME280;59382;43.852;25.952;2023-02-26T08:20:11;99957.81;;;18.04;46.11
71559;BME280;59382;43.852;25.952;2023-02-26T08:22:40;99953.19;;;18.04;46.16
71559;BME280;59382;43.852;25.952;2023-02-26T08:25:05;99944.72;;;18.06;46.06
71559;BME280;59382;43.852;25.952;2023-02-26T08:27:32;99948.50;;;18.15;46.11
71559;BME280;59382;43.852;25.952;2023-02-26T08:29:58;99951.25;;;18.20;46.11
71559;BME280;59382;43.852;25.952;2023-02-26T08:32:23;99959.66;;;18.28;46.21
71559;BME280;59382;43.852;25.952;2023-02-26T08:34:51;99958.28;;;18.31;45.92
71559;BME280;59382;43.852;25.952;2023-02-26T08:37:17;99962.09;;;18.40;45.85
71559;BME280;59382;43.852;25.952;2023-02-26T08:39:42;99965.03;;;18.48;45.98
71559;BME280;59382;43.852;25.952;2023-02-26T08:42:09;99987.16;;;18.52;45.73
71559;BME280;59382;43.852;25.952;2023-02-26T08:44:35;99955.44;;;18.61;45.68
71559;BME280;59382;43.852;25.952;2023-02-26T08:47:01;99955.41;;;18.66;45.67
71559;BME280;59382;43.852;25.952;2023-02-26T08:49:28;99965.19;;;18.72;45.38
71559;BME280;59382;43.852;25.952;2023-02-26T08:51:53;99956.41;;;18.75;45.59
71559;BME280;59382;43.852;25.952;2023-02-26T08:54:19;99945.72;;;18.83;45.20
71559;BME280;59382;43.852;25.952;2023-02-26T08:56:44;99951.19;;;18.83;45.06
71559;BME280;59382;43.852;25.952;2023-02-26T08:59:10;99956.31;;;18.95;45.07
71559;BME280;59382;43.852;25.952;2023-02-26T09:01:37;99981.97;;;18.99;44.84
71559;BME280;59382;43.852;25.952;2023-02-26T09:04:02;99963.34;;;19.06;44.49
71559;BME280;59382;43.852;25.952;2023-02-26T09:06:28;99982.97;;;19.13;44.28
71559;BME280;59382;43.852;25.952;2023-02-26T09:08:53;99950.72;;;19.10;44.06
71559;BME280;59382;43.852;25.952;2023-02-26T09:11:19;99956.13;;;19.15;44.12
71559;BME280;59382;43.852;25.952;2023-02-26T09:13:45;99966.22;;;19.19;44.07
71559;BME280;59382;43.852;25.952;2023-02-26T09:16:10;99950.06;;;19.23;43.62
71559;BME280;59382;43.852;25.952;2023-02-26T09:18:36;99953.84;;;19.32;43.55
71559;BME280;59382;43.852;25.952;2023-02-26T09:21:02;99967.50;;;19.37;43.59
71559;BME280;59382;43.852;25.952;2023-02-26T09:23:28;99969.59;;;19.45;43.41
71559;BME280;59382;43.852;25.952;2023-02-26T09:25:56;99963.03;;;19.46;43.22
71559;BME280;59382;43.852;25.952;2023-02-26T09:28:23;99968.44;;;19.51;42.98
71559;BME280;59382;43.852;25.952;2023-02-26T09:30:53;99952.28;;;19.55;42.36
71559;BME280;59382;43.852;25.952;2023-02-26T09:33:19;99971.16;;;19.56;42.27
71559;BME280;59382;43.852;25.952;2023-02-26T09:35:47;99969.19;;;19.62;42.22
71559;BME280;59382;43.852;25.952;2023-02-26T09:38:13;99974.38;;;19.63;42.29
71559;BME280;59382;43.852;25.952;2023-02-26T09:40:51;99961.72;;;19.67;41.86
71559;BME280;59382;43.852;25.952;2023-02-26T09:43:34;99978.06;;;19.77;41.72
71559;BME280;59382;43.852;25.952;2023-02-26T09:46:09;99945.88;;;19.64;41.71
71559;BME280;59382;43.852;25.952;2023-02-26T09:48:37;99965.53;;;19.71;41.59
71559;BME280;59382;43.852;25.952;2023-02-26T09:51:04;99957.84;;;19.73;41.67
71559;BME280;59382;43.852;25.952;2023-02-26T09:53:37;99978.56;;;19.79;41.12
71559;BME280;59382;43.852;25.952;2023-02-26T09:56:16;99960.56;;;19.73;40.41
71559;BME280;59382;43.852;25.952;2023-02-26T09:58:43;99991.69;;;19.82;41.23
71559;BME280;59382;43.852;25.952;2023-02-26T10:09:53;99982.63;;;20.10;40.68
71559;BME280;59382;43.852;25.952;2023-02-26T10:12:27;99977.66;;;20.17;39.88
71559;BME280;59382;43.852;25.952;2023-02-26T10:15:14;99983.59;;;20.24;40.01
71559;BME280;59382;43.852;25.952;2023-02-26T10:25:40;99977.78;;;20.31;39.67
71559;BME280;59382;43.852;25.952;2023-02-26T10:30:54;99997.94;;;20.40;39.61
71559;BME280;59382;43.852;25.952;2023-02-26T10:33:47;99980.38;;;20.41;39.48
71559;BME280;59382;43.852;25.952;2023-02-26T10:36:23;99992.31;;;20.50;39.52
71559;BME280;59382;43.852;25.952;2023-02-26T10:38:53;99973.56;;;20.38;39.43
71559;BME280;59382;43.852;25.952;2023-02-26T10:41:24;99980.53;;;20.49;39.33
71559;BME280;59382;43.852;25.952;2023-02-26T10:44:16;99998.94;;;20.67;39.09
71559;BME280;59382;43.852;25.952;2023-02-26T10:49:32;99991.63;;;20.81;38.07
71559;BME280;59382;43.852;25.952;2023-02-26T10:52:14;99987.53;;;20.79;37.63
71559;BME280;59382;43.852;25.952;2023-02-26T10:55:02;99970.78;;;20.80;37.22
71559;BME280;59382;43.852;25.952;2023-02-26T10:57:31;99977.34;;;20.84;37.51
71559;BME280;59382;43.852;25.952;2023-02-26T11:00:00;99969.59;;;20.86;37.33
71559;BME280;59382;43.852;25.952;2023-02-26T11:02:40;99956.66;;;20.92;37.04
71559;BME280;59382;43.852;25.952;2023-02-26T11:05:17;99948.06;;;20.98;36.98
71559;BME280;59382;43.852;25.952;2023-02-26T11:07:46;99941.56;;;20.94;36.33
71559;BME280;59382;43.852;25.952;2023-02-26T11:10:16;99934.41;;;20.93;36.59
71559;BME280;59382;43.852;25.952;2023-02-26T11:12:42;99933.88;;;20.91;36.85
71559;BME280;59382;43.852;25.952;2023-02-26T11:15:21;99951.84;;;21.02;36.89
71559;BME280;59382;43.852;25.952;2023-02-26T11:17:49;99942.50;;;21.03;36.81
71559;BME280;59382;43.852;25.952;2023-02-26T11:20:36;99951.25;;;21.05;35.52
71559;BME280;59382;43.852;25.952;2023-02-26T11:23:06;99956.88;;;21.14;35.66
71559;BME280;59382;43.852;25.952;2023-02-26T11:25:35;99948.84;;;21.17;35.52
71559;BME280;59382;43.852;25.952;2023-02-26T11:28:25;99965.19;;;21.27;35.23
71559;BME280;59382;43.852;25.952;2023-02-26T11:30:54;99967.22;;;21.35;35.29
71559;BME280;59382;43.852;25.952;2023-02-26T11:33:33;99967.06;;;21.46;34.96
71559;BME280;59382;43.852;25.952;2023-02-26T11:36:04;99969.72;;;21.51;34.40
71559;BME280;59382;43.852;25.952;2023-02-26T11:38:32;99965.84;;;21.52;34.32
71559;BME280;59382;43.852;25.952;2023-02-26T11:40:59;99962.00;;;21.53;34.10
71559;BME280;59382;43.852;25.952;2023-02-26T11:43:34;99963.63;;;21.54;34.32
71559;BME280;59382;43.852;25.952;2023-02-26T11:46:01;99951.00;;;21.53;33.78
71559;BME280;59382;43.852;25.952;2023-02-26T11:48:47;99903.78;;;21.37;33.67
71559;BME280;59382;43.852;25.952;2023-02-26T11:51:15;99948.59;;;21.65;33.93
71559;BME280;59382;43.852;25.952;2023-02-26T11:53:54;99907.47;;;21.46;34.02
71559;BME280;59382;43.852;25.952;2023-02-26T11:58:53;99954.41;;;21.63;34.20
71559;BME280;59382;43.852;25.952;2023-02-26T12:01:19;99954.09;;;21.65;34.29
71559;BME280;59382;43.852;25.952;2023-02-26T12:03:48;99955.50;;;21.62;34.31
71559;BME280;59382;43.852;25.952;2023-02-26T12:06:18;99947.06;;;21.59;34.14
71559;BME280;59382;43.852;25.952;2023-02-26T12:08:44;99965.03;;;21.51;34.15
71559;BME280;59382;43.852;25.952;2023-02-26T12:17:11;99944.16;;;21.37;34.20
71559;BME280;59382;43.852;25.952;2023-02-26T12:27:56;99948.34;;;21.48;34.52
71559;BME280;59382;43.852;25.952;2023-02-26T12:52:52;99985.63;;;21.35;34.84
71559;BME280;59382;43.852;25.952;2023-02-26T12:58:43;99972.06;;;21.25;35.02
71559;BME280;59382;43.852;25.952;2023-02-26T13:06:51;99966.38;;;21.21;35.30
71559;BME280;59382;43.852;25.952;2023-02-26T13:10:20;99971.03;;;21.21;35.11
71559;BME280;59382;43.852;25.952;2023-02-26T13:20:17;99969.78;;;21.13;35.45
71559;BME280;59382;43.852;25.952;2023-02-26T13:22:49;99980.47;;;20.96;35.58
71559;BME280;59382;43.852;25.952;2023-02-26T13:25:21;99992.81;;;20.94;35.67
71559;BME280;59382;43.852;25.952;2023-02-26T13:27:49;99995.41;;;20.85;35.94
71559;BME280;59382;43.852;25.952;2023-02-26T13:33:19;100003.25;;;20.73;36.00
71559;BME280;59382;43.852;25.952;2023-02-26T13:35:48;100003.25;;;20.73;36.21
71559;BME280;59382;43.852;25.952;2023-02-26T13:41:46;100008.63;;;20.60;36.33
71559;BME280;59382;43.852;25.952;2023-02-26T13:47:11;100007.91;;;20.54;36.41
71559;BME280;59382;43.852;25.952;2023-02-26T13:53:03;100007.44;;;20.47;36.67
71559;BME280;59382;43.852;25.952;2023-02-26T13:55:44;100011.56;;;20.45;36.68
71559;BME280;59382;43.852;25.952;2023-02-26T14:00:47;100010.28;;;20.37;37.15
71559;BME280;59382;43.852;25.952;2023-02-26T14:03:33;99993.38;;;20.30;36.98
71559;BME280;59382;43.852;25.952;2023-02-26T14:06:41;99995.59;;;20.28;36.97
71559;BME280;59382;43.852;25.952;2023-02-26T14:20:14;99983.72;;;20.14;37.15
71559;BME280;59382;43.852;25.952;2023-02-26T14:22:41;99982.59;;;20.15;37.38
71559;BME280;59382;43.852;25.952;2023-02-26T14:27:43;99995.22;;;20.11;37.38
71559;BME280;59382;43.852;25.952;2023-02-26T14:35:40;100006.97;;;20.12;37.51
71559;BME280;59382;43.852;25.952;2023-02-26T14:38:23;100005.13;;;20.07;37.47
71559;BME280;59382;43.852;25.952;2023-02-26T14:40:56;100005.72;;;20.04;37.75
71559;BME280;59382;43.852;25.952;2023-02-26T14:43:39;100007.34;;;20.05;37.78
71559;BME280;59382;43.852;25.952;2023-02-26T14:46:06;99995.94;;;19.98;37.86
71559;BME280;59382;43.852;25.952;2023-02-26T14:48:33;100010.94;;;20.01;37.80
71559;BME280;59382;43.852;25.952;2023-02-26T14:54:03;99990.81;;;19.87;37.45
71559;BME280;59382;43.852;25.952;2023-02-26T15:15:40;100036.00;;;19.89;38.02
71559;BME280;59382;43.852;25.952;2023-02-26T15:23:52;100044.25;;;19.84;38.11
71559;BME280;59382;43.852;25.952;2023-02-26T15:26:25;100059.09;;;19.78;37.98
71559;BME280;59382;43.852;25.952;2023-02-26T15:28:52;100052.28;;;19.76;38.29
71559;BME280;59382;43.852;25.952;2023-02-26T15:31:20;100042.19;;;19.71;38.24
71559;BME280;59382;43.852;25.952;2023-02-26T15:33:54;100058.59;;;19.71;38.19
71559;BME280;59382;43.852;25.952;2023-02-26T15:36:20;100056.44;;;19.68;38.38
71559;BME280;59382;43.852;25.952;2023-02-26T15:38:53;100061.84;;;19.73;38.31
71559;BME280;59382;43.852;25.952;2023-02-26T15:41:19;100051.38;;;19.52;38.31
71559;BME280;59382;43.852;25.952;2023-02-26T15:43:52;100055.72;;;19.58;38.46
71559;BME280;59382;43.852;25.952;2023-02-26T15:46:25;100066.09;;;19.61;38.60
71559;BME280;59382;43.852;25.952;2023-02-26T15:48:55;100065.59;;;19.54;38.36
71559;BME280;59382;43.852;25.952;2023-02-26T15:51:23;100079.03;;;19.50;38.85
71559;BME280;59382;43.852;25.952;2023-02-26T15:53:51;100069.75;;;19.46;38.77
71559;BME280;59382;43.852;25.952;2023-02-26T15:56:22;100070.56;;;19.46;38.88
71559;BME280;59382;43.852;25.952;2023-02-26T15:58:58;100095.72;;;19.48;38.94
71559;BME280;59382;43.852;25.952;2023-02-26T16:01:26;100079.09;;;19.40;38.89
71559;BME280;59382;43.852;25.952;2023-02-26T16:03:56;100091.66;;;19.46;39.05
71559;BME280;59382;43.852;25.952;2023-02-26T16:06:26;100088.69;;;19.37;39.04
71559;BME280;59382;43.852;25.952;2023-02-26T16:08:52;100079.94;;;19.35;38.73